Time;durP1;ratioP1;P1;durP2;ratioP2;P2;SDS_P1;SDS_P2;PMS_P1;PMS_P2;Temp;Humidity;BMP_temperature;BMP_pressure;BME280_temperature;BME280_humidity;BME280_pressure;Samples;Min_cycle;Max_cycle;Signal;HPM_P1;HPM_P2
2021/12/06 00:02:11;;;;;;;20.25;9.38;;;7.00;90.00;;;;;;5092998;28;20444;-77
2021/12/06 00:04:38;;;;;;;22.48;10.65;;;7.00;89.60;;;;;;5093669;28;20103;-78
2021/12/06 00:07:11;;;;;;;17.83;7.85;;;7.00;89.30;;;;;;5091870;28;20047;-78
2021/12/06 00:09:37;;;;;;;21.15;12.57;;;7.00;89.30;;;;;;5091800;28;20107;-78
2021/12/06 00:12:04;;;;;;;25.70;12.93;;;7.00;88.90;;;;;;5092511;28;20052;-77
2021/12/06 00:14:33;;;;;;;19.48;11.52;;;7.00;88.60;;;;;;5093369;28;20499;-78
2021/12/06 00:17:03;;;;;;;25.38;13.05;;;7.00;88.50;;;;;;5093032;28;20059;-78
2021/12/06 00:19:30;;;;;;;22.00;12.65;;;7.00;88.80;;;;;;5093136;28;20024;-78
2021/12/06 00:21:57;;;;;;;28.58;13.32;;;6.90;89.00;;;;;;5081058;28;20035;-78
2021/12/06 00:24:23;;;;;;;23.58;14.63;;;6.90;89.00;;;;;;5086516;28;20024;-77
2021/12/06 00:26:49;;;;;;;24.77;11.57;;;6.90;88.90;;;;;;5093063;28;20043;-78
2021/12/06 00:29:15;;;;;;;25.17;13.63;;;6.90;89.40;;;;;;5079152;28;20026;-77
2021/12/06 00:31:42;;;;;;;25.23;12.65;;;6.80;88.80;;;;;;5074986;28;20044;-78
2021/12/06 00:34:13;;;;;;;29.90;13.93;;;6.80;89.00;;;;;;5092089;28;20028;-78
2021/12/06 00:36:41;;;;;;;25.73;11.50;;;6.80;89.10;;;;;;5092564;28;20123;-78
2021/12/06 00:39:11;;;;;;;19.05;9.90;;;6.80;89.10;;;;;;5091408;28;20032;-78
2021/12/06 00:41:38;;;;;;;20.63;11.57;;;6.70;89.10;;;;;;5073346;28;20123;-78
2021/12/06 00:44:04;;;;;;;25.65;12.02;;;6.80;89.50;;;;;;5095942;28;20028;-78
2021/12/06 00:46:30;;;;;;;20.58;10.85;;;6.70;89.70;;;;;;5075190;28;20085;-79
2021/12/06 00:48:55;;;;;;;19.75;10.18;;;6.70;90.00;;;;;;5092883;28;20426;-78
2021/12/06 00:51:21;;;;;;;29.85;13.25;;;6.70;90.00;;;;;;5092447;28;20147;-78
2021/12/06 00:53:47;;;;;;;26.42;12.70;;;6.60;90.10;;;;;;5092823;28;20081;-78
2021/12/06 00:56:13;;;;;;;24.90;12.65;;;6.60;90.10;;;;;;5063836;28;20024;-78
2021/12/06 00:58:40;;;;;;;26.88;12.05;;;6.60;90.10;;;;;;5077104;28;20111;-78
2021/12/06 01:01:07;;;;;;;25.42;12.23;;;6.60;90.10;;;;;;5073710;28;20451;-78
2021/12/06 01:03:35;;;;;;;27.30;13.65;;;6.60;90.00;;;;;;5068520;28;20388;-78
2021/12/06 01:06:01;;;;;;;29.33;14.88;;;6.60;89.90;;;;;;5084853;28;20089;-77
2021/12/06 01:08:28;;;;;;;28.05;14.68;;;6.60;89.80;;;;;;5092515;28;20032;-77
2021/12/06 01:10:55;;;;;;;21.30;11.32;;;6.60;89.70;;;;;;5059561;28;20045;-78
2021/12/06 01:13:24;;;;;;;26.73;13.30;;;6.60;89.70;;;;;;5050894;28;20025;-78
2021/12/06 01:15:50;;;;;;;19.23;9.25;;;6.70;89.50;;;;;;5055107;28;20037;-77
2021/12/06 01:18:17;;;;;;;25.15;10.15;;;6.70;89.40;;;;;;5054674;28;20044;-76
2021/12/06 01:20:54;;;;;;;24.63;11.40;;;6.70;89.40;;;;;;5043253;28;20033;-77
2021/12/06 01:23:23;;;;;;;26.67;13.20;;;6.70;89.90;;;;;;5039211;28;20044;-78
2021/12/06 01:29:02;;;;;;;27.83;13.88;;;6.80;89.90;;;;;;5060586;28;20163;-77
2021/12/06 01:32:10;;;;;;;20.17;10.55;;;6.80;89.60;;;;;;5050512;28;20045;-77
2021/12/06 01:39:44;;;;;;;15.05;8.55;;;6.80;89.70;;;;;;5039210;28;20111;-78
2021/12/06 01:42:10;;;;;;;20.40;9.30;;;6.80;89.60;;;;;;5063692;28;20067;-78
2021/12/06 01:44:49;;;;;;;25.80;13.25;;;6.80;89.90;;;;;;5051869;28;20032;-79
2021/12/06 01:47:23;;;;;;;29.35;14.90;;;6.80;90.00;;;;;;5037028;28;20029;-77
2021/12/06 01:49:53;;;;;;;30.05;14.30;;;6.80;90.00;;;;;;5052466;28;20041;-79
2021/12/06 01:52:24;;;;;;;;;;;6.80;89.80;;;;;;5037943;28;20183;-78
2021/12/06 01:54:51;;;;;;;34.97;14.27;;;6.80;89.90;;;;;;5050297;28;19936;-78
2021/12/06 01:57:17;;;;;;;32.47;16.25;;;6.80;89.20;;;;;;5051047;28;20059;-78
2021/12/06 01:59:43;;;;;;;24.92;10.95;;;6.80;89.30;;;;;;5037201;28;20030;-78
2021/12/06 02:02:14;;;;;;;15.00;7.43;;;6.80;89.30;;;;;;5050175;28;20021;-78
2021/12/06 02:04:41;;;;;;;18.08;8.93;;;6.80;89.30;;;;;;5051974;28;20362;-79
2021/12/06 02:07:14;;;;;;;27.27;15.65;;;6.80;89.70;;;;;;5050686;28;20029;-78
2021/12/06 02:09:42;;;;;;;;;;;6.80;89.50;;;;;;5051263;28;20550;-77
2021/12/06 02:12:11;;;;;;;27.67;14.07;;;6.80;89.60;;;;;;5069293;28;19923;-77
2021/12/06 02:17:19;;;;;;;30.38;14.95;;;6.80;89.50;;;;;;5070751;28;20403;-77
2021/12/06 02:19:53;;;;;;;29.30;14.25;;;6.80;89.50;;;;;;5091019;28;20495;-77
2021/12/06 02:22:22;;;;;;;29.80;12.95;;;6.90;89.50;;;;;;5068103;28;20032;-77
2021/12/06 02:24:49;;;;;;;29.20;13.82;;;6.90;89.70;;;;;;5075230;28;20472;-77
2021/12/06 02:27:16;;;;;;;25.88;12.30;;;6.90;89.90;;;;;;5074205;28;20033;-77
2021/12/06 02:29:44;;;;;;;27.58;13.10;;;6.90;90.00;;;;;;5067108;28;20393;-78
2021/12/06 02:32:12;;;;;;;29.63;14.73;;;7.00;90.20;;;;;;5056204;28;20040;-77
2021/12/06 02:34:41;;;;;;;26.40;12.27;;;6.90;89.90;;;;;;5059883;28;20025;-78
2021/12/06 02:37:09;;;;;;;28.58;12.52;;;7.00;89.90;;;;;;5064051;28;20033;-77
2021/12/06 02:39:36;;;;;;;25.55;13.43;;;7.00;89.90;;;;;;5053870;28;20025;-78
2021/12/06 02:42:05;;;;;;;30.80;15.45;;;6.90;89.80;;;;;;5070658;28;20528;-77
2021/12/06 02:44:31;;;;;;;32.03;12.02;;;7.00;89.70;;;;;;5073189;28;20036;-78
2021/12/06 02:46:57;;;;;;;26.60;12.77;;;7.00;89.70;;;;;;5063035;28;20033;-78
2021/12/06 02:49:24;;;;;;;28.90;13.57;;;7.10;89.80;;;;;;5066765;28;20025;-78
2021/12/06 02:51:51;;;;;;;29.73;15.32;;;7.00;89.50;;;;;;5066954;28;20483;-77
2021/12/06 02:54:21;;;;;;;28.77;13.05;;;7.10;89.50;;;;;;5075203;28;20027;-78
2021/12/06 02:59:19;;;;;;;28.00;14.63;;;7.00;89.30;;;;;;5076172;28;20021;-78
2021/12/06 03:01:51;;;;;;;25.23;11.73;;;7.10;89.40;;;;;;5074096;28;20024;-77
2021/12/06 03:04:17;;;;;;;17.52;8.75;;;7.10;89.50;;;;;;5075544;28;20503;-77
2021/12/06 03:06:44;;;;;;;21.73;9.85;;;7.10;89.60;;;;;;5067059;28;20120;-77
2021/12/06 03:09:17;;;;;;;29.60;13.48;;;7.10;89.70;;;;;;5066471;28;20553;-77
2021/12/06 03:11:46;;;;;;;30.83;14.77;;;7.10;89.70;;;;;;5060117;28;20484;-77
2021/12/06 03:14:19;;;;;;;24.60;10.32;;;7.10;90.10;;;;;;5051600;28;20025;-77
2021/12/06 03:16:48;;;;;;;26.30;11.70;;;7.10;89.60;;;;;;5044981;28;20025;-77
2021/12/06 03:19:14;;;;;;;25.73;12.05;;;7.00;89.50;;;;;;5054994;28;20412;-77
2021/12/06 03:21:41;;;;;;;23.52;9.88;;;7.10;90.10;;;;;;5047199;28;20041;-78
2021/12/06 03:24:08;;;;;;;28.13;13.38;;;7.10;89.70;;;;;;5052982;28;20090;-77
2021/12/06 03:26:39;;;;;;;25.20;10.90;;;7.10;89.80;;;;;;5052469;28;20033;-77
2021/12/06 03:29:06;;;;;;;27.48;14.20;;;7.10;89.80;;;;;;5059753;28;20021;-78
2021/12/06 03:31:32;;;;;;;27.52;12.32;;;7.10;90.00;;;;;;5039336;28;20124;-78
2021/12/06 03:34:03;;;;;;;26.40;10.65;;;7.10;89.90;;;;;;5043905;28;20334;-77
2021/12/06 03:36:32;;;;;;;36.53;16.48;;;7.10;89.90;;;;;;5048254;28;20518;-78
2021/12/06 03:39:01;;;;;;;33.53;14.55;;;7.10;89.80;;;;;;5052023;28;20021;-77
2021/12/06 03:41:28;;;;;;;29.27;14.20;;;7.10;89.60;;;;;;5052872;28;20037;-77
2021/12/06 03:43:56;;;;;;;32.35;13.23;;;7.10;89.50;;;;;;5053793;28;20037;-78
2021/12/06 03:46:24;;;;;;;30.23;14.05;;;7.10;89.60;;;;;;5039717;28;20030;-77
2021/12/06 03:48:49;;;;;;;30.30;15.00;;;7.10;89.50;;;;;;5053969;28;20366;-77
2021/12/06 03:51:16;;;;;;;33.08;16.17;;;7.10;89.60;;;;;;5053545;28;20104;-76
2021/12/06 03:53:44;;;;;;;36.58;15.77;;;7.10;89.40;;;;;;5051958;28;20029;-77
2021/12/06 03:56:10;;;;;;;24.75;11.10;;;7.10;89.30;;;;;;5039244;28;20029;-77
2021/12/06 03:58:36;;;;;;;35.00;16.35;;;7.10;89.30;;;;;;5054027;28;20423;-77
2021/12/06 04:01:04;;;;;;;31.88;14.25;;;7.20;89.30;;;;;;5038529;28;20036;-77
2021/12/06 04:03:34;;;;;;;37.05;15.65;;;7.10;89.10;;;;;;5062404;28;20033;-77
2021/12/06 04:06:02;;;;;;;38.80;14.32;;;7.10;89.10;;;;;;5035012;28;20030;-77
2021/12/06 04:08:30;;;;;;;29.75;13.05;;;7.20;89.00;;;;;;5048344;28;20072;-77
2021/12/06 04:10:57;;;;;;;26.77;12.00;;;7.20;89.00;;;;;;5058403;28;20090;-77
2021/12/06 04:13:23;;;;;;;33.65;14.65;;;7.20;89.10;;;;;;5072053;28;20063;-77
2021/12/06 04:15:51;;;;;;;27.95;12.52;;;7.20;89.10;;;;;;5071017;28;20024;-77
2021/12/06 04:18:18;;;;;;;29.60;14.43;;;7.20;89.10;;;;;;5077051;28;20028;-77
2021/12/06 04:20:44;;;;;;;33.05;12.88;;;7.20;89.00;;;;;;5066953;28;20029;-77
2021/12/06 04:23:11;;;;;;;27.40;11.43;;;7.20;88.80;;;;;;5065857;28;20044;-77
2021/12/06 04:25:38;;;;;;;29.83;13.05;;;7.20;88.90;;;;;;5071871;28;20020;-78
2021/12/06 04:28:07;;;;;;;26.40;11.73;;;7.20;88.90;;;;;;5056857;28;20401;-77
2021/12/06 04:30:35;;;;;;;27.52;13.07;;;7.20;88.90;;;;;;5060060;28;20028;-77
2021/12/06 04:33:01;;;;;;;28.70;13.35;;;7.20;88.90;;;;;;5071371;28;20130;-77
2021/12/06 04:35:31;;;;;;;28.58;11.95;;;7.20;88.80;;;;;;5063072;28;20025;-77
2021/12/06 04:37:58;;;;;;;31.60;13.60;;;7.20;88.80;;;;;;5060797;28;20036;-77
2021/12/06 04:40:24;;;;;;;33.78;14.77;;;7.20;88.80;;;;;;5071497;28;20031;-77
2021/12/06 04:42:50;;;;;;;28.27;13.55;;;7.20;88.70;;;;;;5070675;28;20028;-77
2021/12/06 04:45:16;;;;;;;37.28;16.92;;;7.20;88.80;;;;;;5071409;28;20040;-77
2021/12/06 04:47:43;;;;;;;32.35;12.88;;;7.20;88.70;;;;;;5071574;28;20047;-77
2021/12/06 04:50:11;;;;;;;30.48;14.65;;;7.20;88.70;;;;;;5057329;28;20444;-77
2021/12/06 04:52:37;;;;;;;36.33;16.60;;;7.20;88.70;;;;;;5071294;28;20036;-77
2021/12/06 04:55:13;;;;;;;37.92;16.33;;;7.20;88.70;;;;;;5071220;28;20037;-77
2021/12/06 04:57:42;;;;;;;35.00;15.82;;;7.20;88.70;;;;;;5070616;28;20029;-77
2021/12/06 05:00:28;;;;;;;34.20;13.77;;;7.20;88.70;;;;;;5067405;28;20032;-77
2021/12/06 05:02:55;;;;;;;33.10;14.90;;;7.20;88.70;;;;;;5081240;28;20123;-77
2021/12/06 05:05:25;;;;;;;37.92;15.45;;;7.20;88.70;;;;;;5072157;28;20065;-78
2021/12/06 05:07:59;;;;;;;9.90;5.00;;;7.20;88.70;;;;;;5070887;28;20031;-80
2021/12/06 05:10:25;;;;;;;32.38;14.05;;;7.20;88.90;;;;;;5066425;28;20178;-78
2021/12/06 05:12:53;;;;;;;35.58;16.08;;;7.20;89.00;;;;;;5051176;28;20037;-78
2021/12/06 05:15:20;;;;;;;40.80;18.08;;;7.20;89.10;;;;;;5051136;28;20021;-76
2021/12/06 05:17:46;;;;;;;33.58;14.32;;;7.20;89.30;;;;;;5051051;28;20052;-77
2021/12/06 05:20:15;;;;;;;36.05;14.65;;;7.20;89.20;;;;;;5042226;28;20068;-78
2021/12/06 05:22:45;;;;;;;34.50;13.63;;;7.20;89.20;;;;;;5051304;28;20056;-77
2021/12/06 05:25:13;;;;;;;32.63;13.90;;;7.20;89.20;;;;;;5036977;28;20033;-77
2021/12/06 05:27:41;;;;;;;35.85;14.93;;;7.10;89.50;;;;;;5051144;28;20040;-77
2021/12/06 05:30:10;;;;;;;32.33;13.82;;;7.20;89.60;;;;;;5032981;28;20487;-77
2021/12/06 05:32:36;;;;;;;32.42;14.65;;;7.20;89.90;;;;;;5042265;28;20051;-79
2021/12/06 05:35:07;;;;;;;40.65;16.77;;;7.20;89.90;;;;;;5038676;28;20029;-78
2021/12/06 05:37:42;;;;;;;33.20;15.32;;;7.20;89.80;;;;;;5051121;28;20029;-76
2021/12/06 05:40:11;;;;;;;29.77;14.05;;;7.20;89.80;;;;;;5049482;28;20040;-80
2021/12/06 05:42:37;;;;;;;27.83;13.30;;;7.20;89.60;;;;;;5041793;28;20104;-73
2021/12/06 05:45:04;;;;;;;12.85;5.93;;;7.20;89.60;;;;;;5052132;28;20125;-76
2021/12/06 05:47:30;;;;;;;18.00;7.90;;;7.20;89.70;;;;;;5041812;28;20029;-79
2021/12/06 05:49:57;;;;;;;32.15;13.85;;;7.20;89.80;;;;;;5061729;28;20118;-76
2021/12/06 05:52:23;;;;;;;28.70;12.20;;;7.20;89.80;;;;;;5058032;28;20041;-76
2021/12/06 05:54:49;;;;;;;21.55;11.15;;;7.20;89.80;;;;;;5035157;28;20029;-76
2021/12/06 05:57:14;;;;;;;25.52;12.18;;;7.20;89.80;;;;;;5052957;28;20095;-76
2021/12/06 05:59:41;;;;;;;23.73;10.88;;;7.20;89.70;;;;;;5055230;28;20523;-77
2021/12/06 06:02:07;;;;;;;31.42;15.20;;;7.20;89.70;;;;;;5060270;28;20033;-77
2021/12/06 06:04:33;;;;;;;38.00;17.77;;;7.20;89.70;;;;;;5055976;28;20159;-73
2021/12/06 06:06:59;;;;;;;28.15;10.98;;;7.20;89.70;;;;;;5056551;28;20060;-72
2021/12/06 06:09:24;;;;;;;21.92;9.55;;;7.20;89.60;;;;;;5047264;28;20067;-71
2021/12/06 06:11:50;;;;;;;25.23;10.35;;;7.20;89.70;;;;;;5087133;28;20048;-78
2021/12/06 06:14:16;;;;;;;18.48;7.40;;;7.20;90.10;;;;;;5094289;28;20048;-78
2021/12/06 06:16:51;;;;;;;27.85;13.07;;;7.10;90.00;;;;;;5106209;28;20023;-74
2021/12/06 06:19:21;;;;;;;20.58;9.50;;;7.20;90.10;;;;;;5106910;28;20032;-74
2021/12/06 06:21:46;;;;;;;31.45;14.10;;;7.20;90.10;;;;;;5113899;28;20084;-75
2021/12/06 06:24:12;;;;;;;27.92;13.68;;;7.10;90.10;;;;;;5108111;28;20519;-75
2021/12/06 06:26:38;;;;;;;27.48;13.10;;;7.20;90.10;;;;;;5113593;28;20024;-76
2021/12/06 06:29:04;;;;;;;23.35;9.13;;;7.10;90.00;;;;;;5113452;28;20036;-77
2021/12/06 06:31:30;;;;;;;25.15;11.68;;;7.10;90.00;;;;;;5114075;28;20032;-75
2021/12/06 06:33:55;;;;;;;32.53;12.70;;;7.10;90.10;;;;;;5096868;28;20027;-77
2021/12/06 06:36:21;;;;;;;10.82;6.47;;;7.10;90.00;;;;;;5105303;28;20106;-77
2021/12/06 06:38:46;;;;;;;28.77;12.45;;;7.10;90.20;;;;;;5103595;28;20024;-76
2021/12/06 06:41:12;;;;;;;34.72;15.98;;;7.10;90.20;;;;;;5103838;28;20758;-77
2021/12/06 06:43:38;;;;;;;33.00;14.65;;;7.00;90.10;;;;;;5102127;28;20027;-76
2021/12/06 06:46:05;;;;;;;25.90;11.60;;;7.00;90.00;;;;;;5082345;28;20035;-74
2021/12/06 06:48:31;;;;;;;33.60;14.85;;;7.00;90.00;;;;;;5095012;28;20097;-75
2021/12/06 06:50:56;;;;;;;32.90;14.13;;;7.00;90.10;;;;;;5094396;28;20040;-75
2021/12/06 06:53:22;;;;;;;26.25;12.60;;;7.00;90.10;;;;;;5095924;28;20063;-73
2021/12/06 06:55:48;;;;;;;17.52;8.40;;;7.00;90.10;;;;;;5113786;28;20512;-75
2021/12/06 06:58:14;;;;;;;27.67;11.88;;;7.00;90.20;;;;;;5092722;28;20030;-72
2021/12/06 07:00:40;;;;;;;35.83;15.38;;;7.00;90.20;;;;;;5111647;28;20024;-75
2021/12/06 07:03:09;;;;;;;38.88;14.52;;;7.00;90.10;;;;;;5107093;28;20093;-76
2021/12/06 07:05:36;;;;;;;33.75;13.75;;;6.90;90.00;;;;;;5103424;28;20102;-75
2021/12/06 07:08:03;;;;;;;36.08;15.13;;;6.90;90.10;;;;;;5091310;28;20031;-75
2021/12/06 07:10:29;;;;;;;35.70;17.20;;;6.90;90.10;;;;;;5102457;28;20123;-75
2021/12/06 07:12:55;;;;;;;39.60;18.30;;;6.90;90.10;;;;;;5109266;28;20126;-75
2021/12/06 07:15:25;;;;;;;37.55;16.85;;;6.90;90.00;;;;;;5107408;28;20118;-75
2021/12/06 07:17:52;;;;;;;37.90;17.85;;;6.90;90.00;;;;;;5104691;28;20031;-75
2021/12/06 07:20:18;;;;;;;32.35;15.50;;;6.80;90.00;;;;;;5096781;28;20364;-75
2021/12/06 07:22:45;;;;;;;34.47;15.27;;;6.80;90.00;;;;;;5101886;28;20035;-75
2021/12/06 07:25:13;;;;;;;34.30;15.63;;;6.80;90.00;;;;;;5096897;28;20032;-75
2021/12/06 07:27:39;;;;;;;34.33;15.93;;;6.80;90.00;;;;;;5112923;28;20024;-75
2021/12/06 07:30:06;;;;;;;31.92;15.93;;;6.80;90.10;;;;;;5098326;28;20391;-75
2021/12/06 07:32:31;;;;;;;37.97;16.50;;;6.80;90.00;;;;;;5084607;28;20044;-75
2021/12/06 07:34:57;;;;;;;31.58;15.23;;;6.80;90.00;;;;;;5090464;28;20028;-75
2021/12/06 07:37:23;;;;;;;33.05;15.73;;;6.70;90.00;;;;;;5098236;28;20035;-75
2021/12/06 07:39:48;;;;;;;34.40;14.85;;;6.70;90.00;;;;;;5097277;28;20039;-74
2021/12/06 07:42:14;;;;;;;26.65;11.85;;;6.70;90.00;;;;;;5096109;28;20043;-70
2021/12/06 07:44:41;;;;;;;40.38;16.05;;;6.70;90.10;;;;;;5105098;28;20471;-75
2021/12/06 07:47:09;;;;;;;31.55;13.63;;;6.70;90.10;;;;;;5072609;28;20028;-75
2021/12/06 07:49:37;;;;;;;34.42;16.40;;;6.60;90.00;;;;;;5087600;28;20032;-75
2021/12/06 07:52:04;;;;;;;25.70;11.85;;;6.60;90.00;;;;;;5073181;28;20044;-75
2021/12/06 07:54:31;;;;;;;13.05;7.53;;;6.60;90.10;;;;;;5093606;28;20028;-75
2021/12/06 07:56:57;;;;;;;20.08;8.90;;;6.60;90.10;;;;;;5093731;28;20040;-75
2021/12/06 07:59:22;;;;;;;34.83;16.70;;;6.60;90.10;;;;;;5086189;28;20032;-75
2021/12/06 08:01:49;;;;;;;39.10;18.15;;;6.60;90.20;;;;;;5092596;28;20425;-75
2021/12/06 08:04:15;;;;;;;37.53;17.13;;;6.60;90.20;;;;;;5092847;28;20071;-75
2021/12/06 08:06:40;;;;;;;35.10;16.20;;;6.60;90.10;;;;;;5092206;28;20476;-75
2021/12/06 08:09:06;;;;;;;35.50;14.85;;;6.70;90.20;;;;;;5085496;28;20038;-75
2021/12/06 08:11:33;;;;;;;36.55;17.20;;;6.60;90.20;;;;;;5087349;28;20098;-75
2021/12/06 08:13:59;;;;;;;35.88;15.23;;;6.60;90.20;;;;;;5091482;28;20051;-75
2021/12/06 08:16:37;;;;;;;33.42;16.60;;;6.60;90.20;;;;;;5089864;28;20043;-75
2021/12/06 08:19:02;;;;;;;37.47;17.02;;;6.60;90.10;;;;;;5085451;28;20032;-75
2021/12/06 08:21:29;;;;;;;38.65;16.05;;;6.70;90.10;;;;;;5092474;28;20053;-75
2021/12/06 08:23:57;;;;;;;35.30;14.93;;;6.70;90.10;;;;;;5093336;28;20115;-76
2021/12/06 08:26:29;;;;;;;38.83;17.75;;;6.70;90.20;;;;;;5102393;28;20043;-76
2021/12/06 08:28:57;;;;;;;30.52;13.20;;;6.60;90.20;;;;;;5097559;28;20044;-76
2021/12/06 08:31:23;;;;;;;38.30;14.43;;;6.70;90.30;;;;;;5092955;28;20040;-76
2021/12/06 08:33:50;;;;;;;36.92;16.25;;;6.60;90.20;;;;;;5093371;28;20422;-76
2021/12/06 08:36:16;;;;;;;36.35;15.60;;;6.70;90.30;;;;;;5092283;28;20051;-76
2021/12/06 08:38:41;;;;;;;37.83;16.95;;;6.60;90.20;;;;;;5092948;28;20024;-76
2021/12/06 08:41:12;;;;;;;42.50;17.88;;;6.60;90.30;;;;;;5092535;28;20089;-76
2021/12/06 08:43:40;;;;;;;30.42;13.02;;;6.70;90.30;;;;;;5088198;28;20029;-76
2021/12/06 08:46:10;;;;;;;39.92;18.98;;;6.70;90.30;;;;;;5084712;28;20036;-76
2021/12/06 08:48:39;;;;;;;39.53;14.88;;;6.60;90.30;;;;;;5092255;28;20067;-76
2021/12/06 08:51:11;;;;;;;43.42;16.92;;;6.70;90.40;;;;;;5092881;28;20054;-76
2021/12/06 08:53:38;;;;;;;40.85;16.60;;;6.70;90.40;;;;;;5093008;28;20036;-77
2021/12/06 08:56:05;;;;;;;49.40;18.48;;;6.70;90.40;;;;;;5091763;28;20033;-76
2021/12/06 08:58:31;;;;;;;38.30;17.20;;;6.70;90.40;;;;;;5084773;28;20060;-76
2021/12/06 09:00:57;;;;;;;39.95;16.48;;;6.70;90.50;;;;;;5087546;28;20494;-76
2021/12/06 09:03:22;;;;;;;15.43;5.68;;;6.70;90.50;;;;;;5105998;28;20027;-76
2021/12/06 09:05:52;;;;;;;44.90;19.52;;;6.70;90.50;;;;;;5096185;28;20380;-76
2021/12/06 09:08:17;;;;;;;42.60;17.88;;;6.70;90.50;;;;;;5105725;28;20471;-76
2021/12/06 09:10:49;;;;;;;53.60;18.83;;;6.70;90.50;;;;;;5092227;28;20098;-75
2021/12/06 09:13:16;;;;;;;43.25;17.48;;;6.70;90.50;;;;;;5100878;28;20031;-76
2021/12/06 09:15:42;;;;;;;43.40;17.77;;;6.70;90.50;;;;;;5092386;28;20451;-76
2021/12/06 09:18:08;;;;;;;42.67;17.98;;;6.70;90.50;;;;;;5084827;28;20051;-75
2021/12/06 09:20:38;;;;;;;34.70;14.43;;;6.60;90.50;;;;;;5109938;28;20387;-76
2021/12/06 09:23:05;;;;;;;44.70;18.48;;;6.70;90.50;;;;;;5095625;28;20085;-74
2021/12/06 09:25:32;;;;;;;47.97;18.83;;;6.70;90.60;;;;;;5103651;28;20122;-75
2021/12/06 09:27:58;;;;;;;43.88;18.02;;;6.70;90.60;;;;;;5108368;28;20157;-75
2021/12/06 09:30:29;;;;;;;43.30;18.38;;;6.70;90.60;;;;;;5107406;28;20023;-75
2021/12/06 09:32:58;;;;;;;30.10;12.50;;;6.80;90.70;;;;;;5101378;28;20055;-75
2021/12/06 09:35:27;;;;;;;27.50;11.13;;;6.70;90.60;;;;;;5104114;28;20017;-74
2021/12/06 09:37:55;;;;;;;36.67;16.15;;;6.70;90.60;;;;;;5095485;28;20028;-75
2021/12/06 09:40:22;;;;;;;37.17;17.08;;;6.80;90.60;;;;;;5108078;28;20028;-75
2021/12/06 09:42:48;;;;;;;39.28;16.73;;;6.80;90.60;;;;;;5111542;28;20106;-75
2021/12/06 09:45:22;;;;;;;17.30;6.47;;;6.80;90.60;;;;;;5098395;28;20153;-76
2021/12/06 09:47:51;;;;;;;37.45;16.00;;;6.80;90.60;;;;;;5101581;28;20035;-76
2021/12/06 09:50:27;;;;;;;29.30;13.13;;;6.80;90.60;;;;;;5097955;28;20024;-75
2021/12/06 09:52:56;;;;;;;33.83;15.02;;;6.80;90.60;;;;;;5099427;28;20118;-76
2021/12/06 09:55:24;;;;;;;37.58;16.17;;;6.80;90.60;;;;;;5093955;28;20063;-75
2021/12/06 09:57:50;;;;;;;36.80;15.25;;;6.80;90.60;;;;;;5108237;28;20035;-75
2021/12/06 10:00:20;;;;;;;33.58;16.40;;;6.80;90.50;;;;;;5063995;28;20557;-79
2021/12/06 10:02:46;;;;;;;34.10;16.25;;;6.80;90.60;;;;;;5101807;28;20024;-76
2021/12/06 10:05:12;;;;;;;42.47;18.83;;;6.80;90.50;;;;;;5102540;28;20058;-76
2021/12/06 10:07:38;;;;;;;36.67;16.23;;;6.80;90.50;;;;;;5108017;28;20031;-75
2021/12/06 10:10:07;;;;;;;32.17;12.82;;;6.90;90.50;;;;;;5104352;28;20594;-76
2021/12/06 10:12:34;;;;;;;34.83;13.73;;;6.90;90.50;;;;;;5101098;28;20559;-74
2021/12/06 10:15:02;;;;;;;32.92;14.07;;;6.90;90.60;;;;;;5093010;28;20489;-75
2021/12/06 10:17:30;;;;;;;30.10;12.38;;;6.90;90.60;;;;;;5106039;28;20077;-76
2021/12/06 10:19:55;;;;;;;32.08;11.70;;;6.90;90.60;;;;;;5113295;28;20023;-76
2021/12/06 10:22:21;;;;;;;29.17;13.13;;;6.90;90.60;;;;;;5098710;28;20175;-76
2021/12/06 10:24:53;;;;;;;33.58;14.00;;;6.90;90.60;;;;;;5103108;28;20428;-75
2021/12/06 10:27:19;;;;;;;32.22;12.05;;;6.90;90.60;;;;;;5099248;28;20398;-76
2021/12/06 10:29:59;;;;;;;30.75;13.18;;;7.00;90.90;;;;;;5110477;28;20444;-76
2021/12/06 10:32:27;;;;;;;38.28;15.10;;;7.10;90.60;;;;;;5108456;28;20091;-76
2021/12/06 10:34:58;;;;;;;37.80;15.82;;;7.00;90.50;;;;;;5106094;28;20024;-75
2021/12/06 10:37:45;;;;;;;30.65;13.93;;;7.10;90.40;;;;;;5109593;28;20037;-83
2021/12/06 10:40:20;;;;;;;32.55;15.45;;;7.00;90.50;;;;;;5095372;28;20063;-74
2021/12/06 10:42:49;;;;;;;37.25;11.23;;;7.10;90.50;;;;;;5094577;28;20027;-74
2021/12/06 10:45:18;;;;;;;32.33;15.18;;;7.10;90.50;;;;;;5100524;28;20095;-75
2021/12/06 10:48:05;;;;;;;28.33;13.38;;;7.00;90.40;;;;;;5107320;28;20034;-75
2021/12/06 10:50:31;;;;;;;41.47;14.07;;;7.10;90.50;;;;;;5098387;28;20153;-77
2021/12/06 10:52:59;;;;;;;28.10;12.48;;;7.10;90.40;;;;;;5105547;28;20047;-77
2021/12/06 10:55:30;;;;;;;38.97;15.80;;;7.10;90.40;;;;;;5102700;28;20498;-77
2021/12/06 10:58:06;;;;;;;28.60;13.95;;;7.10;90.40;;;;;;5101396;28;20027;-77
2021/12/06 11:00:47;;;;;;;38.47;15.35;;;7.10;90.30;;;;;;5088689;28;20423;-76
2021/12/06 11:03:31;;;;;;;27.85;13.15;;;7.10;90.20;;;;;;5098525;28;20498;-75
2021/12/06 11:06:09;;;;;;;27.77;13.30;;;7.10;90.10;;;;;;5097719;28;20035;-75
2021/12/06 11:08:38;;;;;;;35.15;14.30;;;7.10;90.10;;;;;;5104356;28;20051;-74
2021/12/06 11:11:13;;;;;;;30.10;13.50;;;7.10;90.10;;;;;;5078993;28;20178;-75
2021/12/06 11:13:43;;;;;;;35.25;14.57;;;7.10;90.10;;;;;;5100068;28;20067;-75
2021/12/06 11:16:16;;;;;;;31.48;11.57;;;7.00;90.00;;;;;;5079639;28;20167;-74
2021/12/06 11:18:47;;;;;;;12.60;5.97;;;7.10;90.20;;;;;;5094634;28;20039;-74
2021/12/06 11:21:33;;;;;;;31.42;14.02;;;7.10;90.30;;;;;;5095190;28;20040;-74
2021/12/06 11:24:26;;;;;;;29.17;13.82;;;7.10;90.40;;;;;;5093345;28;20805;-74
2021/12/06 11:27:24;;;;;;;29.60;12.77;;;7.10;90.30;;;;;;5103801;28;20039;-75
2021/12/06 11:29:57;;;;;;;32.95;13.10;;;7.10;90.30;;;;;;5093953;28;20036;-74
2021/12/06 11:32:37;;;;;;;28.65;12.95;;;7.10;90.30;;;;;;5091923;28;20077;-76
2021/12/06 11:35:23;;;;;;;24.02;9.57;;;7.20;90.30;;;;;;5107877;28;20024;-76
2021/12/06 11:37:52;;;;;;;34.38;13.07;;;7.10;90.30;;;;;;5085141;28;20051;-76
2021/12/06 11:40:30;;;;;;;23.73;8.57;;;7.20;90.30;;;;;;5109305;28;20035;-78
2021/12/06 11:43:00;;;;;;;37.15;16.02;;;7.20;90.30;;;;;;5113353;28;20057;-75
2021/12/06 11:45:34;;;;;;;33.40;14.60;;;7.20;90.20;;;;;;5084799;28;20456;-74
2021/12/06 11:48:09;;;;;;;35.78;16.20;;;7.20;90.20;;;;;;5109925;28;20028;-71
2021/12/06 11:50:50;;;;;;;37.60;14.15;;;7.20;90.10;;;;;;5100010;28;20522;-76
2021/12/06 11:53:19;;;;;;;25.40;10.43;;;7.20;90.20;;;;;;5102717;28;20036;-75
2021/12/06 11:55:51;;;;;;;36.60;15.07;;;7.20;90.20;;;;;;5099150;28;20081;-75
2021/12/06 11:58:38;;;;;;;30.02;11.98;;;7.20;90.10;;;;;;5112404;28;20409;-75
2021/12/06 12:01:11;;;;;;;33.20;14.23;;;7.20;90.10;;;;;;5101858;28;20467;-75
2021/12/06 12:03:38;;;;;;;;;;;7.20;90.10;;;;;;5106742;28;20027;-76
2021/12/06 12:06:30;;;;;;;19.55;7.97;;;7.20;90.20;;;;;;5100190;28;19908;-75
2021/12/06 12:09:17;;;;;;;28.02;12.10;;;7.20;90.50;;;;;;5101755;28;20036;-76
2021/12/06 12:12:01;;;;;;;33.50;14.98;;;7.20;90.20;;;;;;5102243;28;20047;-75
2021/12/06 12:14:37;;;;;;;22.38;10.15;;;7.20;90.20;;;;;;5098463;28;20036;-75
2021/12/06 12:17:07;;;;;;;18.75;7.40;;;7.20;90.20;;;;;;5083341;28;20180;-75
2021/12/06 12:19:34;;;;;;;28.45;12.88;;;7.20;90.30;;;;;;5101477;28;20028;-75
2021/12/06 12:22:00;;;;;;;19.05;7.55;;;7.20;90.40;;;;;;5093390;28;20040;-76
2021/12/06 12:24:25;;;;;;;25.90;12.70;;;7.20;90.50;;;;;;5094404;28;20100;-75
2021/12/06 12:27:01;;;;;;;47.25;20.58;;;7.30;90.50;;;;;;5110148;28;20475;-76
2021/12/06 12:29:28;;;;;;;25.55;11.43;;;7.30;90.40;;;;;;5097146;28;20032;-76
2021/12/06 12:32:04;;;;;;;35.00;14.52;;;7.30;90.50;;;;;;5087822;28;20040;-75
2021/12/06 12:34:34;;;;;;;10.30;5.10;;;7.30;90.70;;;;;;5105934;28;20110;-76
2021/12/06 12:37:01;;;;;;;29.92;13.32;;;7.30;90.60;;;;;;5096129;28;20482;-75
2021/12/06 12:39:28;;;;;;;22.77;9.95;;;7.30;90.60;;;;;;5106641;28;20028;-77
2021/12/06 12:41:57;;;;;;;27.52;13.18;;;7.30;90.60;;;;;;5100983;28;20036;-76
2021/12/06 12:44:24;;;;;;;19.00;9.43;;;7.30;90.60;;;;;;5108281;28;20066;-76
2021/12/06 12:46:53;;;;;;;16.10;7.30;;;7.30;90.60;;;;;;5100697;28;20032;-76
2021/12/06 12:49:30;;;;;;;21.13;11.30;;;7.30;90.70;;;;;;5106602;28;20032;-77
2021/12/06 12:51:57;;;;;;;17.88;8.30;;;7.30;90.60;;;;;;5101562;28;20074;-76
2021/12/06 12:54:29;;;;;;;22.33;9.77;;;7.30;90.60;;;;;;5106724;28;20053;-76
2021/12/06 12:57:01;;;;;;;7.60;3.75;;;7.40;90.70;;;;;;5110005;28;20462;-75
2021/12/06 12:59:42;;;;;;;13.65;7.22;;;7.40;90.80;;;;;;5101837;28;20035;-75
2021/12/06 13:02:28;;;;;;;27.35;11.68;;;7.40;90.80;;;;;;5096873;28;20028;-75